Time;durP1;ratioP1;P1;durP2;ratioP2;P2;SDS_P1;SDS_P2;PMS_P1;PMS_P2;Temp;Humidity;BMP_temperature;BMP_pressure;BME280_temperature;BME280_humidity;BME280_pressure;Samples;Min_cycle;Max_cycle;Signal;HPM_P1;HPM_P2
2024/02/12 00:02:20;;;;;;;15.55;8.68;;;;;;;8.91;100.00;99603.38;5110683;28;20055;-65
2024/02/12 00:05:10;;;;;;;13.18;9.00;;;;;;;8.90;100.00;99596.31;5079517;28;20198;-65
2024/02/12 00:08:04;;;;;;;11.43;8.05;;;;;;;8.90;100.00;99600.97;5094116;28;20052;-64
2024/02/12 00:10:54;;;;;;;17.15;9.70;;;;;;;8.89;100.00;99604.75;5116616;27;20062;-64
2024/02/12 00:13:42;;;;;;;13.60;9.43;;;;;;;8.89;100.00;99615.63;5098319;27;20488;-66
2024/02/12 00:16:30;;;;;;;14.35;8.98;;;;;;;8.89;100.00;99618.34;5087189;28;20135;-65
2024/02/12 00:19:18;;;;;;;13.93;7.60;;;;;;;8.89;100.00;99637.34;5099206;27;20054;-66
2024/02/12 00:22:06;;;;;;;10.82;7.40;;;;;;;8.88;100.00;99633.81;5113743;28;20043;-66
2024/02/12 00:24:54;;;;;;;11.43;7.82;;;;;;;8.88;100.00;99633.03;5099096;28;20062;-65
2024/02/12 00:27:43;;;;;;;14.20;8.73;;;;;;;8.89;100.00;99642.78;5078515;28;20091;-65
2024/02/12 00:30:32;;;;;;;16.48;8.30;;;;;;;8.89;100.00;99651.72;5114147;27;20164;-65
2024/02/12 00:33:21;;;;;;;13.40;8.82;;;;;;;8.89;100.00;99649.03;5090779;28;20044;-66
2024/02/12 00:36:09;;;;;;;12.90;8.50;;;;;;;8.88;100.00;99652.03;5110970;28;20052;-65
2024/02/12 00:38:57;;;;;;;16.25;9.88;;;;;;;8.86;100.00;99652.31;5084244;27;20157;-66
2024/02/12 00:41:52;;;;;;;15.38;10.15;;;;;;;8.84;100.00;99662.66;5092648;28;20047;-65
2024/02/12 00:44:40;;;;;;;17.42;10.45;;;;;;;8.84;100.00;99661.84;5093457;28;20070;-65
2024/02/12 00:47:28;;;;;;;15.18;9.65;;;;;;;8.85;100.00;99675.16;5098484;28;20442;-65
2024/02/12 00:50:17;;;;;;;17.13;10.82;;;;;;;8.83;100.00;99671.91;5076458;28;20059;-66
2024/02/12 00:53:05;;;;;;;17.60;11.48;;;;;;;8.84;100.00;99689.81;5111257;28;20556;-65
2024/02/12 00:55:55;;;;;;;19.25;11.82;;;;;;;8.82;100.00;99683.84;5113269;28;20134;-64
2024/02/12 00:58:45;;;;;;;19.08;10.68;;;;;;;8.83;100.00;99681.97;5096800;27;20092;-65
2024/02/12 01:01:34;;;;;;;19.45;10.85;;;;;;;8.80;100.00;99691.47;5133662;27;20066;-65
2024/02/12 01:04:22;;;;;;;17.75;10.60;;;;;;;8.81;100.00;99693.09;5133471;27;20051;-65
2024/02/12 01:07:10;;;;;;;19.40;11.98;;;;;;;8.83;100.00;99699.06;5098921;28;20126;-66
2024/02/12 01:10:00;;;;;;;16.17;11.07;;;;;;;8.80;100.00;99702.31;5109384;27;20138;-66
2024/02/12 01:12:49;;;;;;;16.73;11.70;;;;;;;8.79;100.00;99703.44;5098779;28;20123;-65
2024/02/12 01:15:37;;;;;;;18.08;11.48;;;;;;;8.79;100.00;99711.59;5113043;28;20039;-64
2024/02/12 01:18:45;;;;;;;17.13;11.95;;;;;;;8.79;100.00;99708.06;5099915;27;20580;-65
2024/02/12 01:21:34;;;;;;;22.67;12.73;;;;;;;8.78;100.00;99723.56;5130252;27;20138;-66
2024/02/12 01:24:22;;;;;;;17.88;12.90;;;;;;;8.76;100.00;99723.03;5113397;28;20118;-66
2024/02/12 01:27:12;;;;;;;19.80;13.38;;;;;;;8.74;100.00;99717.06;5096980;28;20058;-64
2024/02/12 01:30:00;;;;;;;21.98;13.68;;;;;;;8.73;100.00;99726.28;5132700;27;20451;-65
2024/02/12 01:32:50;;;;;;;20.98;14.45;;;;;;;8.72;100.00;99730.09;5118793;27;20505;-65
2024/02/12 01:35:39;;;;;;;22.15;14.23;;;;;;;8.70;100.00;99732.28;5100188;27;20051;-64
2024/02/12 01:38:27;;;;;;;26.77;16.30;;;;;;;8.69;100.00;99731.47;5113877;27;20059;-64
2024/02/12 01:41:17;;;;;;;23.55;16.00;;;;;;;8.68;100.00;99734.47;5124241;27;20397;-65
2024/02/12 01:44:06;;;;;;;24.20;15.90;;;;;;;8.66;100.00;99742.09;5077694;28;20044;-65
2024/02/12 01:46:55;;;;;;;23.45;16.80;;;;;;;8.65;100.00;99745.91;5094371;28;20076;-65
2024/02/12 01:49:44;;;;;;;24.30;16.17;;;;;;;8.65;100.00;99733.13;5097478;28;20048;-65
2024/02/12 01:52:32;;;;;;;24.70;16.35;;;;;;;8.64;100.00;99738.84;5097496;28;20075;-65
2024/02/12 01:55:22;;;;;;;28.88;17.85;;;;;;;8.61;100.00;99742.13;5085153;28;20185;-66
2024/02/12 01:58:11;;;;;;;26.95;16.73;;;;;;;8.60;100.00;99735.06;5094805;27;20035;-64
2024/02/12 02:00:59;;;;;;;26.42;16.23;;;;;;;8.59;100.00;99737.00;5098156;28;20496;-64
2024/02/12 02:03:48;;;;;;;24.05;16.35;;;;;;;8.56;100.00;99745.66;5088319;28;20044;-65
2024/02/12 02:06:37;;;;;;;25.88;15.68;;;;;;;8.56;100.00;99742.97;5092786;28;20063;-65
2024/02/12 02:09:26;;;;;;;23.85;15.55;;;;;;;8.55;100.00;99744.06;5076487;28;20044;-64
2024/02/12 02:12:15;;;;;;;28.02;16.27;;;;;;;8.56;100.00;99742.97;5111855;28;20522;-64
2024/02/12 02:15:10;;;;;;;25.47;16.13;;;;;;;8.53;100.00;99752.47;5083632;28;20054;-65
2024/02/12 02:17:58;;;;;;;22.50;15.90;;;;;;;8.52;100.00;99755.50;5111241;28;20035;-65
2024/02/12 02:20:47;;;;;;;27.65;15.93;;;;;;;8.49;100.00;99754.16;5092939;28;20044;-65
2024/02/12 02:23:35;;;;;;;24.42;16.38;;;;;;;8.49;100.00;99759.59;5107281;28;20044;-65
2024/02/12 02:26:23;;;;;;;25.88;16.85;;;;;;;8.48;100.00;99760.66;5083342;28;20419;-64
2024/02/12 02:29:12;;;;;;;27.75;15.93;;;;;;;8.47;100.00;99761.75;5088041;28;20523;-65
2024/02/12 02:32:00;;;;;;;25.40;15.18;;;;;;;8.47;100.00;99772.63;5076846;28;20498;-65
2024/02/12 02:34:48;;;;;;;23.33;15.75;;;;;;;8.47;100.00;99772.63;5095186;28;20043;-65
2024/02/12 02:37:36;;;;;;;25.58;16.08;;;;;;;8.48;100.00;99768.00;5115125;28;20044;-66
2024/02/12 02:40:25;;;;;;;22.63;14.45;;;;;;;8.50;100.00;99768.53;5087619;28;20048;-66
2024/02/12 02:43:15;;;;;;;24.08;15.18;;;;;;;8.49;100.00;99758.75;5095547;28;20044;-65
2024/02/12 02:46:03;;;;;;;25.42;15.25;;;;;;;8.47;100.00;99767.19;5080172;28;20050;-65
2024/02/12 02:48:51;;;;;;;24.88;15.07;;;;;;;8.46;100.00;99762.84;5080470;28;20462;-65
2024/02/12 02:51:39;;;;;;;25.08;15.63;;;;;;;8.44;100.00;99769.63;5100074;28;20051;-66
2024/02/12 02:54:27;;;;;;;22.73;14.45;;;;;;;8.43;100.00;99771.53;5101332;28;20146;-64
2024/02/12 02:57:15;;;;;;;25.88;15.13;;;;;;;8.42;100.00;99769.94;5101759;28;20051;-65
2024/02/12 03:00:05;;;;;;;23.63;14.90;;;;;;;8.44;100.00;99777.78;5083766;27;20044;-65
2024/02/12 03:02:53;;;;;;;23.92;15.38;;;;;;;8.41;100.00;99772.91;5106293;28;20043;-64
2024/02/12 03:05:41;;;;;;;21.88;14.55;;;;;;;8.41;100.00;99778.34;5114678;28;20047;-65
2024/02/12 03:08:34;;;;;;;23.90;15.43;;;;;;;8.41;100.00;99772.91;5115042;28;20040;-65
2024/02/12 03:11:23;;;;;;;25.48;16.00;;;;;;;8.41;100.00;99775.63;5104171;28;20517;-65
2024/02/12 03:14:12;;;;;;;22.48;14.35;;;;;;;8.40;100.00;99788.41;5079749;28;20105;-66
2024/02/12 03:17:00;;;;;;;28.35;15.57;;;;;;;8.38;100.00;99792.44;5093786;28;20040;-65
2024/02/12 03:19:49;;;;;;;22.23;15.35;;;;;;;8.35;100.00;99796.53;5103289;27;20096;-65
2024/02/12 03:22:39;;;;;;;27.27;15.52;;;;;;;8.31;100.00;99800.88;5117340;27;20048;-65
2024/02/12 03:25:27;;;;;;;27.30;15.90;;;;;;;8.28;100.00;99809.59;5085839;28;20042;-66
2024/02/12 03:28:16;;;;;;;30.40;16.60;;;;;;;8.25;100.00;99812.84;5101070;28;20051;-65
2024/02/12 03:31:04;;;;;;;23.90;16.30;;;;;;;8.23;100.00;99812.34;5096195;28;20495;-66
2024/02/12 03:33:53;;;;;;;28.95;15.88;;;;;;;8.21;100.00;99811.78;5080268;28;20479;-66
2024/02/12 03:36:44;;;;;;;28.35;16.02;;;;;;;8.21;100.00;99817.22;5094383;28;20082;-66
2024/02/12 03:39:32;;;;;;;24.88;16.70;;;;;;;8.19;100.00;99816.69;5115424;27;20051;-65
2024/02/12 03:42:26;;;;;;;26.10;17.02;;;;;;;8.19;100.00;99825.63;5113429;27;20055;-66
2024/02/12 03:45:15;;;;;;;25.33;16.52;;;;;;;8.17;100.00;99822.38;5102095;27;20058;-66
2024/02/12 03:59:50;;;;;;;28.40;16.88;;;;;;;8.15;100.00;99821.03;5136482;27;20192;-64
2024/02/12 04:00:36;;;;;;;33.50;19.52;;;;;;;7.94;100.00;99829.25;5142544;27;20112;-65
2024/02/12 04:03:24;;;;;;;30.98;19.30;;;;;;;7.96;100.00;99829.78;5134269;27;20044;-65
2024/02/12 04:06:12;;;;;;;30.42;18.58;;;;;;;8.01;100.00;99834.34;5138436;27;20043;-62
2024/02/12 04:09:00;;;;;;;24.40;15.98;;;;;;;8.06;100.00;99837.06;5127389;27;20054;-63
2024/02/12 04:11:49;;;;;;;26.83;17.30;;;;;;;8.09;100.00;99834.63;5130452;27;20051;-65
2024/02/12 04:14:38;;;;;;;30.67;17.13;;;;;;;8.10;100.00;99835.41;5093939;27;20050;-65
2024/02/12 04:17:26;;;;;;;27.50;17.63;;;;;;;8.11;100.00;99846.00;5119704;27;20495;-65
2024/02/12 04:20:15;;;;;;;27.38;18.15;;;;;;;8.12;100.00;99852.25;5119054;27;20043;-65
2024/02/12 04:23:04;;;;;;;30.45;18.60;;;;;;;8.13;100.00;99863.91;5133959;27;20485;-66
2024/02/12 04:25:52;;;;;;;33.28;18.13;;;;;;;8.09;100.00;99864.44;5068776;28;20055;-65
2024/02/12 04:28:40;;;;;;;30.17;18.08;;;;;;;8.08;100.00;99857.41;5093961;28;20508;-65
2024/02/12 04:31:28;;;;;;;26.02;16.17;;;;;;;8.04;100.00;99859.03;5093851;28;20048;-65
2024/02/12 04:34:16;;;;;;;33.90;19.02;;;;;;;8.04;100.00;99863.66;5097564;27;21151;-66
2024/02/12 04:37:06;;;;;;;28.30;19.08;;;;;;;8.01;100.00;99856.88;5110400;28;20062;-65
2024/02/12 04:39:54;;;;;;;28.20;18.50;;;;;;;8.01;100.00;99867.75;5098960;28;20056;-65
2024/02/12 04:42:42;;;;;;;25.98;18.38;;;;;;;8.01;100.00;99867.75;5097556;28;20043;-65
2024/02/12 04:45:30;;;;;;;30.15;19.05;;;;;;;8.00;100.00;99876.94;5112107;28;20048;-65
2024/02/12 04:48:21;;;;;;;30.50;18.45;;;;;;;8.00;100.00;99876.94;5099271;28;20097;-65
2024/02/12 04:51:09;;;;;;;27.27;18.85;;;;;;;8.00;100.00;99876.13;5084545;28;20605;-66
2024/02/12 04:53:58;;;;;;;29.50;18.83;;;;;;;7.99;100.00;99879.94;5098193;28;20044;-65
2024/02/12 04:56:46;;;;;;;26.45;18.27;;;;;;;8.00;100.00;99882.38;5090188;28;20036;-65
2024/02/12 04:59:37;;;;;;;27.63;17.67;;;;;;;8.02;100.00;99890.25;5091257;28;20123;-64
2024/02/12 05:02:26;;;;;;;28.50;19.02;;;;;;;8.02;100.00;99887.53;5095350;28;20048;-65
2024/02/12 05:05:14;;;;;;;31.77;18.90;;;;;;;8.03;100.00;99887.28;5112689;27;20548;-65
2024/02/12 05:08:06;;;;;;;28.15;18.08;;;;;;;8.01;100.00;99894.88;5110403;28;20063;-63
2024/02/12 05:10:56;;;;;;;30.20;18.85;;;;;;;7.99;100.00;99898.94;5099039;28;20081;-65
2024/02/12 05:13:44;;;;;;;27.80;17.20;;;;;;;8.01;100.00;99897.56;5099473;27;20054;-64
2024/02/12 05:16:33;;;;;;;27.13;18.60;;;;;;;8.01;100.00;99903.00;5118527;27;20525;-65
2024/02/12 05:22:42;;;;;;;28.50;17.70;;;;;;;8.00;100.00;99898.66;5045653;28;20048;-65
2024/02/12 05:25:30;;;;;;;27.75;18.00;;;;;;;8.01;100.00;99903.00;5077545;28;20485;-65
2024/02/12 05:28:18;;;;;;;30.40;17.38;;;;;;;8.03;100.00;99905.41;5096666;28;20055;-65
2024/02/12 05:31:05;;;;;;;26.90;18.33;;;;;;;8.03;100.00;99903.53;5097903;28;20054;-64
2024/02/12 05:33:53;;;;;;;30.83;18.42;;;;;;;8.04;100.00;99905.16;5083864;27;20159;-65
2024/02/12 05:36:45;;;;;;;27.77;18.92;;;;;;;8.02;100.00;99901.91;5097469;28;20040;-65
2024/02/12 05:39:33;;;;;;;29.40;18.70;;;;;;;8.03;100.00;99900.84;5095857;28;20510;-65
2024/02/12 05:42:22;;;;;;;26.40;17.45;;;;;;;8.02;100.00;99901.09;5112279;28;20044;-66
2024/02/12 05:45:10;;;;;;;30.40;18.25;;;;;;;8.02;100.00;99910.03;5064076;28;20122;-66
2024/02/12 05:48:11;;;;;;;34.33;20.52;;;;;;;7.98;100.00;99911.66;5086604;28;20044;-65
2024/02/12 05:50:59;;;;;;;36.55;20.05;;;;;;;7.92;100.00;99907.34;5079259;28;20047;-65
2024/02/12 05:53:47;;;;;;;33.40;19.55;;;;;;;7.89;100.00;99916.03;5099213;28;20056;-64
2024/02/12 05:56:39;;;;;;;26.63;17.60;;;;;;;7.87;100.00;99918.22;5097330;28;20050;-63
2024/02/12 05:59:28;;;;;;;23.50;17.67;;;;;;;7.83;100.00;99917.13;5056514;28;20039;-63
2024/02/12 06:02:16;;;;;;;26.90;17.95;;;;;;;7.81;100.00;99911.94;5111834;28;20462;-65
2024/02/12 06:05:04;;;;;;;22.58;15.82;;;;;;;7.82;100.00;99910.06;5075812;28;20123;-66
2024/02/12 06:07:54;;;;;;;20.77;14.07;;;;;;;7.83;100.00;99917.13;5084935;28;20054;-65
2024/02/12 06:10:46;;;;;;;19.35;12.70;;;;;;;7.85;100.00;99921.19;5108955;28;20048;-65
2024/02/12 06:13:34;;;;;;;19.33;12.57;;;;;;;7.89;100.00;99924.19;5118280;28;20460;-65
2024/02/12 06:16:22;;;;;;;19.92;12.65;;;;;;;7.91;100.00;99927.41;5081354;28;20514;-65
2024/02/12 06:19:10;;;;;;;20.67;12.48;;;;;;;7.92;100.00;99912.78;5093367;28;20047;-64
2024/02/12 06:21:58;;;;;;;15.70;11.02;;;;;;;7.95;100.00;99920.34;5082106;28;20181;-64
2024/02/12 06:24:46;;;;;;;25.60;15.63;;;;;;;7.97;100.00;99929.03;5078669;28;20048;-63
2024/02/12 06:27:37;;;;;;;23.60;14.90;;;;;;;7.97;100.00;99934.47;5097843;28;20052;-65
2024/02/12 06:30:25;;;;;;;27.17;17.75;;;;;;;7.96;100.00;99938.28;5097772;28;20403;-65
2024/02/12 06:33:13;;;;;;;19.60;12.85;;;;;;;7.97;100.00;99939.91;5113072;28;20051;-64
2024/02/12 06:36:01;;;;;;;28.35;17.25;;;;;;;7.99;100.00;99945.88;5099066;28;20071;-65
2024/02/12 06:38:50;;;;;;;25.38;17.50;;;;;;;8.00;100.00;99944.75;5105264;28;20047;-65
2024/02/12 06:41:44;;;;;;;25.42;17.73;;;;;;;8.00;100.00;99952.91;5108698;28;20093;-65
2024/02/12 06:44:32;;;;;;;24.23;17.77;;;;;;;7.99;100.00;99956.72;5109787;28;20044;-65
2024/02/12 06:47:21;;;;;;;27.17;18.63;;;;;;;7.98;100.00;99965.91;5097487;28;20406;-65
2024/02/12 06:50:10;;;;;;;29.38;18.58;;;;;;;7.97;100.00;99968.94;5085714;28;20519;-63
2024/02/12 06:53:19;;;;;;;32.90;20.35;;;;;;;7.96;100.00;99968.13;5090593;28;20063;-64
2024/02/12 06:56:07;;;;;;;27.10;19.05;;;;;;;7.97;100.00;99975.16;5079592;28;20507;-65
2024/02/12 06:58:56;;;;;;;31.15;19.60;;;;;;;7.98;100.00;99982.19;5110726;28;20047;-64
2024/02/12 07:01:44;;;;;;;28.75;19.20;;;;;;;7.99;100.00;99977.59;5095630;28;20492;-65
2024/02/12 07:04:32;;;;;;;24.48;16.70;;;;;;;8.00;100.00;99980.03;5106931;28;20533;-65
2024/02/12 07:07:20;;;;;;;28.70;18.75;;;;;;;8.00;100.00;99985.44;5097402;28;20043;-65
2024/02/12 07:10:11;;;;;;;28.90;19.48;;;;;;;8.01;100.00;99988.97;5098671;28;20052;-65
2024/02/12 07:12:59;;;;;;;25.25;18.00;;;;;;;8.01;100.00;99981.69;5090911;28;20618;-65
2024/02/12 07:15:47;;;;;;;27.25;18.50;;;;;;;7.99;100.00;99994.69;5110940;28;20054;-65
2024/02/12 07:18:35;;;;;;;25.50;17.67;;;;;;;8.01;100.00;100006.09;5120176;28;20072;-65
2024/02/12 07:21:23;;;;;;;22.42;16.50;;;;;;;7.99;100.00;100010.97;5096669;28;20370;-64
2024/02/12 07:24:11;;;;;;;26.58;16.63;;;;;;;8.00;100.00;100009.06;5099484;28;20083;-66
2024/02/12 07:26:59;;;;;;;23.35;16.33;;;;;;;7.99;100.00;100016.38;5114791;27;20118;-64
2024/02/12 07:29:47;;;;;;;25.90;17.48;;;;;;;7.99;100.00;100015.59;5113663;28;20104;-66
2024/02/12 07:32:38;;;;;;;23.48;16.45;;;;;;;7.98;100.00;100020.16;4377160;28;10001595;-66
2024/02/12 07:35:29;;;;;;;23.27;16.70;;;;;;;7.98;100.00;100030.22;5099696;27;20047;-66
2024/02/12 07:38:17;;;;;;;20.52;13.98;;;;;;;7.98;100.00;100036.44;5092431;28;20381;-65
2024/02/12 07:41:05;;;;;;;25.25;15.73;;;;;;;7.97;100.00;100029.41;5108123;28;20048;-65
2024/02/12 07:43:54;;;;;;;22.27;14.85;;;;;;;7.98;100.00;100041.88;5109996;28;20047;-65
2024/02/12 07:46:43;;;;;;;20.00;13.85;;;;;;;7.97;100.00;100045.69;5123599;27;20054;-66
2024/02/12 07:49:31;;;;;;;27.83;15.75;;;;;;;7.96;100.00;100049.50;5106538;28;20127;-66
2024/02/12 07:52:19;;;;;;;23.15;15.93;;;;;;;7.97;100.00;100055.72;5055486;28;20146;-65
2024/02/12 07:55:10;;;;;;;24.75;16.33;;;;;;;7.97;100.00;100058.44;5109382;27;20059;-67
2024/02/12 07:58:06;;;;;;;22.15;15.88;;;;;;;7.98;100.00;100062.75;5109693;28;20059;-67
2024/02/12 08:00:56;;;;;;;25.02;16.63;;;;;;;7.97;100.00;100067.38;5080887;28;20077;-66
2024/02/12 08:03:44;;;;;;;23.38;16.13;;;;;;;7.97;100.00;100072.00;5109911;28;20039;-66
2024/02/12 08:06:32;;;;;;;27.10;17.08;;;;;;;8.00;100.00;100074.97;5126132;27;20419;-65
2024/02/12 08:09:20;;;;;;;27.08;18.10;;;;;;;8.01;100.00;100075.78;5100050;28;20093;-64
2024/02/12 08:12:08;;;;;;;27.00;18.02;;;;;;;8.02;100.00;100075.53;5122134;28;20050;-65
2024/02/12 08:14:56;;;;;;;29.02;18.70;;;;;;;8.01;100.00;100079.34;5107702;28;20075;-66
2024/02/12 08:17:44;;;;;;;31.25;18.30;;;;;;;8.00;100.00;100072.25;5077341;28;20189;-66
2024/02/12 08:20:35;;;;;;;28.48;17.42;;;;;;;8.01;100.00;100084.75;5105202;28;20502;-65
2024/02/12 08:23:23;;;;;;;24.60;16.63;;;;;;;8.00;100.00;100087.72;5117796;28;20043;-67
2024/02/12 08:26:12;;;;;;;25.63;16.85;;;;;;;7.99;100.00;100089.63;5117744;28;20407;-64
2024/02/12 08:29:00;;;;;;;27.15;18.25;;;;;;;7.99;100.00;100094.25;5095907;28;20067;-62
2024/02/12 08:31:48;;;;;;;28.10;17.77;;;;;;;7.99;100.00;100102.38;5096418;28;20043;-67
2024/02/12 08:34:41;;;;;;;28.10;19.42;;;;;;;7.94;100.00;100105.06;5095460;28;20051;-68
2024/02/12 08:37:29;;;;;;;31.25;19.88;;;;;;;7.88;100.00;100112.38;5108524;28;20055;-67
2024/02/12 08:40:17;;;;;;;28.13;19.40;;;;;;;7.87;100.00;100110.78;5108124;28;20050;-67
2024/02/12 08:43:06;;;;;;;26.92;19.48;;;;;;;7.83;100.00;100120.50;5109203;28;20055;-66
2024/02/12 08:45:54;;;;;;;30.25;19.35;;;;;;;7.89;100.00;100122.16;5074040;28;20170;-66
2024/02/12 08:48:45;;;;;;;29.00;18.67;;;;;;;7.94;100.00;100126.75;5048204;28;20492;-65
2024/02/12 08:51:34;;;;;;;26.52;17.25;;;;;;;7.98;100.00;100131.38;5082559;28;20389;-65
2024/02/12 08:54:22;;;;;;;23.48;15.93;;;;;;;8.02;100.00;100135.22;5089114;28;20424;-65
2024/02/12 08:57:14;;;;;;;30.33;18.13;;;;;;;8.06;100.00;100138.22;5079722;28;20044;-68
2024/02/12 09:00:04;;;;;;;24.10;16.50;;;;;;;8.10;100.00;100148.28;5108148;28;20075;-66
2024/02/12 09:02:58;;;;;;;25.95;15.77;;;;;;;8.10;100.00;100142.84;5094825;28;20051;-65
2024/02/12 09:05:46;;;;;;;25.95;16.45;;;;;;;8.08;100.00;100157.72;5094059;28;20043;-67
2024/02/12 09:08:35;;;;;;;25.08;15.93;;;;;;;8.08;100.00;100164.00;5109109;28;20525;-65
2024/02/12 09:11:23;;;;;;;19.75;12.93;;;;;;;8.09;100.00;100165.63;5094274;28;20044;-66
2024/02/12 09:14:11;;;;;;;23.60;16.45;;;;;;;8.13;100.00;100173.22;5108321;28;20048;-67
2024/02/12 09:16:59;;;;;;;29.73;19.13;;;;;;;8.14;100.00;100174.84;5091714;28;20084;-66
2024/02/12 09:19:47;;;;;;;26.83;17.17;;;;;;;8.14;100.00;100180.28;5107619;28;20434;-66
2024/02/12 09:22:38;;;;;;;25.27;17.48;;;;;;;8.07;100.00;100180.53;5109348;28;20130;-66
2024/02/12 09:25:27;;;;;;;24.45;17.58;;;;;;;8.00;100.00;100190.81;5113527;27;20043;-67
2024/02/12 09:28:16;;;;;;;25.73;17.52;;;;;;;7.95;100.00;100199.75;5092437;28;20174;-66
2024/02/12 09:31:05;;;;;;;27.33;18.50;;;;;;;7.92;100.00;100204.91;5104752;28;20051;-64
2024/02/12 09:33:53;;;;;;;26.35;17.27;;;;;;;7.94;100.00;100200.84;5111724;28;20065;-66
2024/02/12 09:36:42;;;;;;;24.95;17.75;;;;;;;7.95;100.00;100204.38;5112022;28;20044;-66
2024/02/12 09:39:31;;;;;;;30.95;20.27;;;;;;;7.93;100.00;100214.66;5097742;28;20043;-65
2024/02/12 09:42:20;;;;;;;24.35;16.08;;;;;;;7.93;100.00;100212.75;5097081;27;20112;-66
2024/02/12 09:45:11;;;;;;;31.45;17.40;;;;;;;7.98;100.00;100218.19;5078213;28;20046;-66
2024/02/12 09:48:00;;;;;;;28.98;15.50;;;;;;;8.06;100.00;100217.69;5064969;28;20127;-66
2024/02/12 09:50:50;;;;;;;25.52;16.05;;;;;;;8.07;100.00;100224.75;5076994;28;20055;-65
2024/02/12 09:53:42;;;;;;;19.70;13.20;;;;;;;8.04;100.00;100230.72;5102997;28;20066;-66
2024/02/12 09:56:31;;;;;;;22.65;13.32;;;;;;;8.08;100.00;100233.69;5096527;28;20054;-66
2024/02/12 09:59:21;;;;;;;24.85;13.75;;;;;;;8.14;100.00;100234.56;5082763;28;20044;-66
2024/02/12 10:02:09;;;;;;;21.08;13.82;;;;;;;8.17;100.00;100244.88;5112189;28;20059;-66
2024/02/12 10:05:21;;;;;;;22.63;14.60;;;;;;;8.19;100.00;100248.13;5097300;28;20043;-66
2024/02/12 10:08:30;;;;;;;25.63;13.68;;;;;;;8.24;100.00;100250.84;5112239;28;20491;-66
2024/02/12 10:11:39;;;;;;;21.52;12.63;;;;;;;8.31;100.00;100256.84;5088953;28;20070;-66
2024/02/12 10:14:47;;;;;;;20.42;12.30;;;;;;;8.33;100.00;100254.69;5111785;28;20061;-66
2024/02/12 10:17:55;;;;;;;19.35;11.88;;;;;;;8.28;100.00;100255.50;5111924;28;20084;-66
2024/02/12 10:21:04;;;;;;;22.75;14.23;;;;;;;8.31;100.00;100273.13;5111254;28;20036;-66
2024/02/12 10:24:12;;;;;;;20.92;11.63;;;;;;;8.22;100.00;100269.31;5097815;28;20039;-67
2024/02/12 10:27:20;;;;;;;19.48;11.98;;;;;;;8.19;100.00;100273.38;5110711;28;20039;-66
2024/02/12 10:30:28;;;;;;;20.05;12.57;;;;;;;8.16;100.00;100281.22;5140218;28;20054;-68
2024/02/12 10:33:37;;;;;;;20.73;12.02;;;;;;;8.14;100.00;100283.41;5123584;28;20043;-66
2024/02/12 10:36:48;;;;;;;18.60;11.63;;;;;;;8.16;100.00;100292.91;5090101;28;20052;-67
2024/02/12 10:39:56;;;;;;;19.05;11.55;;;;;;;8.18;100.00;100296.16;5088590;28;20051;-67
2024/02/12 10:43:05;;;;;;;16.75;11.05;;;;;;;8.20;100.00;100295.88;5112065;28;20048;-66
2024/02/12 10:46:13;;;;;;;18.98;10.63;;;;;;;8.22;100.00;100301.88;5098055;28;20054;-67
2024/02/12 10:49:23;;;;;;;20.92;10.57;;;;;;;8.27;100.00;100310.03;5097591;28;20068;-66
2024/02/12 10:52:31;;;;;;;18.90;10.48;;;;;;;8.22;100.00;100308.09;5080264;28;20047;-66
2024/02/12 10:55:39;;;;;;;18.52;11.10;;;;;;;8.23;100.00;100308.94;5095172;27;20055;-66
2024/02/12 10:58:28;;;;;;;17.52;10.35;;;;;;;8.25;100.00;100307.59;5105853;28;20055;-66
2024/02/12 11:01:17;;;;;;;16.17;9.48;;;;;;;8.37;100.00;100310.09;5100206;28;20043;-67
2024/02/12 11:04:05;;;;;;;24.67;10.82;;;;;;;8.47;100.00;100315.59;5114246;28;20122;-67
2024/02/12 11:06:53;;;;;;;20.88;11.15;;;;;;;8.53;100.00;100319.13;5116151;27;20051;-67
2024/02/12 11:09:41;;;;;;;19.25;10.23;;;;;;;8.56;100.00;100318.56;5099038;28;20055;-67
2024/02/12 11:12:33;;;;;;;18.02;9.82;;;;;;;8.57;100.00;100324.84;5100335;28;20039;-67
2024/02/12 11:15:28;;;;;;;19.92;10.73;;;;;;;8.57;100.00;100324.84;5113389;28;20035;-67
2024/02/12 11:18:16;;;;;;;16.33;9.77;;;;;;;8.58;100.00;100330.00;5094404;28;20036;-67
2024/02/12 11:21:05;;;;;;;19.50;10.70;;;;;;;8.56;100.00;100328.63;5065316;28;20507;-67
2024/02/12 11:24:07;;;;;;;15.73;9.82;;;;;;;8.56;100.00;100326.72;5079536;28;20542;-66
2024/02/12 11:26:59;;;;;;;18.33;10.65;;;;;;;8.58;100.00;100329.19;5074881;28;20065;-66
2024/02/12 11:29:48;;;;;;;19.00;10.52;;;;;;;8.57;100.00;100335.72;5073425;28;20124;-66
2024/02/12 11:32:36;;;;;;;21.17;10.07;;;;;;;8.61;100.00;100331.34;5114991;28;20048;-66
2024/02/12 11:35:25;;;;;;;14.40;9.57;;;;;;;8.63;100.00;100329.19;5099127;28;20050;-66
2024/02/12 11:38:17;;;;;;;19.70;10.80;;;;;;;8.68;100.00;100331.91;5115336;28;20128;-66
2024/02/12 11:41:05;;;;;;;17.02;9.30;;;;;;;8.70;100.00;100329.75;5113194;28;20039;-67
2024/02/12 11:43:53;;;;;;;19.75;9.80;;;;;;;8.70;100.00;100329.75;5093506;28;20515;-67
2024/02/12 11:46:42;;;;;;;18.38;9.73;;;;;;;8.71;100.00;100342.28;5066281;28;20126;-66
2024/02/12 11:49:30;;;;;;;19.08;10.60;;;;;;;8.69;100.00;100339.00;5065215;28;20498;-66
2024/02/12 11:52:20;;;;;;;17.63;10.43;;;;;;;8.68;100.00;100337.34;5096367;28;20190;-65
2024/02/12 11:55:08;;;;;;;17.45;10.60;;;;;;;8.69;100.00;100347.16;4365905;28;10000784;-66
2024/02/12 11:57:58;;;;;;;15.35;10.60;;;;;;;8.71;100.00;100342.28;5061568;28;20051;-67
2024/02/12 12:00:46;;;;;;;17.58;10.82;;;;;;;8.74;100.00;100347.16;5061039;28;20093;-66
2024/02/12 12:03:34;;;;;;;16.13;10.50;;;;;;;8.73;100.00;100340.91;5071267;28;20492;-68
2024/02/12 12:06:23;;;;;;;20.05;11.63;;;;;;;8.76;100.00;100345.00;5040501;28;20091;-68
2024/02/12 12:09:11;;;;;;;16.98;10.35;;;;;;;8.76;100.00;100350.44;5075964;28;20037;-70
2024/02/12 12:11:59;;;;;;;18.92;11.05;;;;;;;8.79;100.00;100349.88;5058047;28;20044;-68
2024/02/12 12:14:47;;;;;;;15.65;10.20;;;;;;;8.79;100.00;100349.88;5055549;28;20056;-67
2024/02/12 12:17:39;;;;;;;17.67;10.43;;;;;;;8.80;100.00;100354.22;5055225;28;20094;-67
2024/02/12 12:20:29;;;;;;;17.77;12.32;;;;;;;8.76;100.00;100361.28;5056803;28;20523;-67
2024/02/12 12:23:21;;;;;;;22.30;13.55;;;;;;;8.72;100.00;100349.31;5082770;28;20118;-67
2024/02/12 12:26:10;;;;;;;23.38;13.75;;;;;;;8.71;100.00;100353.94;5105640;28;20093;-67
2024/02/12 12:28:59;;;;;;;21.38;13.05;;;;;;;8.68;100.00;100359.91;5101738;28;20074;-66
2024/02/12 12:31:50;;;;;;;21.73;12.75;;;;;;;8.67;100.00;100365.59;5081836;28;20063;-66
2024/02/12 12:34:39;;;;;;;22.92;13.57;;;;;;;8.67;100.00;100360.97;5060634;28;20059;-65
2024/02/12 12:37:27;;;;;;;20.50;12.40;;;;;;;8.69;100.00;100361.53;5093930;28;20044;-64
2024/02/12 12:40:19;;;;;;;19.63;12.57;;;;;;;8.68;100.00;100370.78;5108031;28;20103;-59
2024/02/12 12:43:08;;;;;;;19.10;11.80;;;;;;;8.71;100.00;100374.88;5088897;28;20519;-67
2024/02/12 12:46:01;;;;;;;19.63;11.15;;;;;;;8.74;100.00;100377.84;5080646;28;20056;-68
2024/02/12 12:48:55;;;;;;;17.40;10.53;;;;;;;8.77;100.00;100373.78;5068923;28;20044;-68
2024/02/12 12:51:43;;;;;;;18.45;10.70;;;;;;;8.79;100.00;100382.47;5093120;28;20500;-67
2024/02/12 12:54:31;;;;;;;20.80;11.45;;;;;;;8.82;100.00;100372.97;5084287;28;20071;-68
2024/02/12 12:57:19;;;;;;;19.30;10.68;;;;;;;8.85;100.00;100378.72;5099427;28;20043;-67
2024/02/12 13:00:18;;;;;;;19.75;9.52;;;;;;;8.94;100.00;100379.78;5083971;28;20055;-67
2024/02/12 13:03:13;;;;;;;20.58;9.90;;;;;;;8.97;100.00;100383.88;5086297;28;20101;-67
2024/02/12 13:06:02;;;;;;;14.77;8.60;;;;;;;8.99;100.00;100378.19;5085140;28;20118;-67
2024/02/12 13:08:50;;;;;;;16.50;9.15;;;;;;;9.01;100.00;100392.31;5098685;28;20058;-67
2024/02/12 13:11:39;;;;;;;16.88;10.13;;;;;;;9.00;100.00;100388.00;5113338;28;20039;-67
2024/02/12 13:14:27;;;;;;;16.92;9.20;;;;;;;8.98;100.00;100392.88;5099456;28;20055;-67